Weather at Hacienda El Paso Airport

Public forecast

Using degrees Celsius for public forecast. Weather courtesy of forecast.io.

Closest aviation weather report (METAR) to Hacienda El Paso Airport

Report is more than 6 hours old.

Closest report is Sub Teniente Nestor Arias Airport, 37.4 nm (69.2 km) SE. Retrieved 2017/08/10 11:00 UTC (4 years ago):

SVSP 101100Z 101100VCFG SCT012 SCT200 25/25 A2990

Closest aviation forecast (TAF) to Hacienda El Paso Airport

Forecast is more than 12 hours old.

Closest forecast is Barquisimeto International Airport, 41.2 nm (76.4 km) SSW. Retrieved 2020/10/26 12:42 UTC (9 months ago):

TAF TAF SVBM 261127Z 2612/2712 07008KT 8000 VCBR FEW013 CB BKN070 TX33/2618Z TN22/2708Z BECMG 2614/2618 11008KT 4000 VCTSDZ FEW010CB BKN070